sensor_id;sensor_type;location;lat;lon;timestamp;P1;durP1;ratioP1;P2;durP2;ratioP2
62790;SDS011;48830;53.426;10.300;2022-12-07T00:01:22;36.23;;;19.20;;
62790;SDS011;48830;53.426;10.300;2022-12-07T00:03:51;35.70;;;19.33;;
62790;SDS011;48830;53.426;10.300;2022-12-07T00:06:18;34.47;;;19.10;;
62790;SDS011;48830;53.426;10.300;2022-12-07T00:08:45;35.03;;;19.40;;
62790;SDS011;48830;53.426;10.300;2022-12-07T00:11:12;33.43;;;18.47;;
62790;SDS011;48830;53.426;10.300;2022-12-07T00:13:40;34.30;;;18.17;;
62790;SDS011;48830;53.426;10.300;2022-12-07T00:16:10;33.43;;;17.90;;
62790;SDS011;48830;53.426;10.300;2022-12-07T00:18:43;33.77;;;18.20;;
62790;SDS011;48830;53.426;10.300;2022-12-07T00:21:10;35.73;;;19.70;;
62790;SDS011;48830;53.426;10.300;2022-12-07T00:23:37;31.83;;;17.50;;
62790;SDS011;48830;53.426;10.300;2022-12-07T00:26:08;34.43;;;18.07;;
62790;SDS011;48830;53.426;10.300;2022-12-07T00:28:40;37.57;;;19.20;;
62790;SDS011;48830;53.426;10.300;2022-12-07T00:31:08;33.47;;;17.53;;
62790;SDS011;48830;53.426;10.300;2022-12-07T00:33:36;33.50;;;17.30;;
62790;SDS011;48830;53.426;10.300;2022-12-07T00:36:04;32.03;;;17.07;;
62790;SDS011;48830;53.426;10.300;2022-12-07T00:38:32;32.37;;;17.77;;
62790;SDS011;48830;53.426;10.300;2022-12-07T00:41:00;29.77;;;16.20;;
62790;SDS011;48830;53.426;10.300;2022-12-07T00:43:27;28.73;;;17.17;;
62790;SDS011;48830;53.426;10.300;2022-12-07T00:45:53;31.77;;;16.77;;
62790;SDS011;48830;53.426;10.300;2022-12-07T00:48:19;30.40;;;16.70;;
62790;SDS011;48830;53.426;10.300;2022-12-07T00:50:45;34.13;;;17.00;;
62790;SDS011;48830;53.426;10.300;2022-12-07T00:53:10;29.30;;;16.93;;
62790;SDS011;48830;53.426;10.300;2022-12-07T00:55:36;31.50;;;16.97;;
62790;SDS011;48830;53.426;10.300;2022-12-07T00:58:02;28.70;;;16.87;;
62790;SDS011;48830;53.426;10.300;2022-12-07T01:00:28;30.23;;;16.97;;
62790;SDS011;48830;53.426;10.300;2022-12-07T01:02:54;28.57;;;17.17;;
62790;SDS011;48830;53.426;10.300;2022-12-07T01:05:19;29.33;;;16.00;;
62790;SDS011;48830;53.426;10.300;2022-12-07T01:07:45;25.73;;;15.33;;
62790;SDS011;48830;53.426;10.300;2022-12-07T01:10:11;28.87;;;15.90;;
62790;SDS011;48830;53.426;10.300;2022-12-07T01:12:37;29.50;;;16.27;;
62790;SDS011;48830;53.426;10.300;2022-12-07T01:15:03;27.20;;;16.87;;
62790;SDS011;48830;53.426;10.300;2022-12-07T01:17:29;29.43;;;15.60;;
62790;SDS011;48830;53.426;10.300;2022-12-07T01:19:54;26.63;;;14.50;;
62790;SDS011;48830;53.426;10.300;2022-12-07T01:22:20;26.30;;;14.17;;
62790;SDS011;48830;53.426;10.300;2022-12-07T01:24:45;25.60;;;13.57;;
62790;SDS011;48830;53.426;10.300;2022-12-07T01:27:12;27.17;;;13.97;;
62790;SDS011;48830;53.426;10.300;2022-12-07T01:29:38;24.00;;;13.90;;
62790;SDS011;48830;53.426;10.300;2022-12-07T01:32:03;25.73;;;13.23;;
62790;SDS011;48830;53.426;10.300;2022-12-07T01:34:29;23.57;;;13.67;;
62790;SDS011;48830;53.426;10.300;2022-12-07T01:36:54;26.07;;;13.87;;
62790;SDS011;48830;53.426;10.300;2022-12-07T01:39:20;22.33;;;13.60;;
62790;SDS011;48830;53.426;10.300;2022-12-07T01:41:46;22.27;;;12.77;;
62790;SDS011;48830;53.426;10.300;2022-12-07T01:47:28;26.73;;;13.90;;
62790;SDS011;48830;53.426;10.300;2022-12-07T01:49:54;28.23;;;13.73;;
62790;SDS011;48830;53.426;10.300;2022-12-07T01:52:23;25.03;;;13.00;;
62790;SDS011;48830;53.426;10.300;2022-12-07T01:54:57;23.50;;;12.73;;
62790;SDS011;48830;53.426;10.300;2022-12-07T01:57:26;24.90;;;12.93;;
62790;SDS011;48830;53.426;10.300;2022-12-07T01:59:52;24.67;;;12.73;;
62790;SDS011;48830;53.426;10.300;2022-12-07T02:02:27;24.93;;;12.23;;
62790;SDS011;48830;53.426;10.300;2022-12-07T02:04:54;23.53;;;12.03;;
62790;SDS011;48830;53.426;10.300;2022-12-07T02:07:22;25.33;;;12.80;;
62790;SDS011;48830;53.426;10.300;2022-12-07T02:09:48;21.17;;;11.53;;
62790;SDS011;48830;53.426;10.300;2022-12-07T02:12:13;20.67;;;11.80;;
62790;SDS011;48830;53.426;10.300;2022-12-07T02:14:39;22.57;;;11.43;;
62790;SDS011;48830;53.426;10.300;2022-12-07T02:17:17;26.07;;;12.47;;
62790;SDS011;48830;53.426;10.300;2022-12-07T02:23:00;19.43;;;11.40;;
62790;SDS011;48830;53.426;10.300;2022-12-07T02:31:08;15.60;;;8.33;;
62790;SDS011;48830;53.426;10.300;2022-12-07T02:33:42;15.13;;;8.47;;
62790;SDS011;48830;53.426;10.300;2022-12-07T02:39:00;17.30;;;8.57;;
62790;SDS011;48830;53.426;10.300;2022-12-07T02:41:36;15.60;;;7.73;;
62790;SDS011;48830;53.426;10.300;2022-12-07T02:44:08;14.07;;;7.20;;
62790;SDS011;48830;53.426;10.300;2022-12-07T02:46:41;16.50;;;7.37;;
62790;SDS011;48830;53.426;10.300;2022-12-07T02:49:09;16.07;;;7.50;;
62790;SDS011;48830;53.426;10.300;2022-12-07T02:51:40;15.10;;;6.87;;
62790;SDS011;48830;53.426;10.300;2022-12-07T02:54:17;12.70;;;6.90;;
62790;SDS011;48830;53.426;10.300;2022-12-07T03:05:12;13.03;;;6.17;;
62790;SDS011;48830;53.426;10.300;2022-12-07T03:13:11;11.50;;;6.07;;
62790;SDS011;48830;53.426;10.300;2022-12-07T03:16:00;13.33;;;5.90;;
62790;SDS011;48830;53.426;10.300;2022-12-07T03:18:31;10.77;;;6.07;;
62790;SDS011;48830;53.426;10.300;2022-12-07T03:21:02;11.20;;;5.73;;
62790;SDS011;48830;53.426;10.300;2022-12-07T03:23:34;12.13;;;5.57;;
62790;SDS011;48830;53.426;10.300;2022-12-07T03:26:03;11.37;;;5.20;;
62790;SDS011;48830;53.426;10.300;2022-12-07T03:28:35;12.40;;;5.10;;
62790;SDS011;48830;53.426;10.300;2022-12-07T03:31:07;12.33;;;4.93;;
62790;SDS011;48830;53.426;10.300;2022-12-07T03:33:42;13.03;;;4.93;;
62790;SDS011;48830;53.426;10.300;2022-12-07T03:36:17;10.23;;;4.10;;
62790;SDS011;48830;53.426;10.300;2022-12-07T03:38:50;9.33;;;4.50;;
62790;SDS011;48830;53.426;10.300;2022-12-07T03:41:27;11.40;;;5.00;;
62790;SDS011;48830;53.426;10.300;2022-12-07T03:43:56;9.70;;;4.10;;
62790;SDS011;48830;53.426;10.300;2022-12-07T03:49:41;9.53;;;3.83;;
62790;SDS011;48830;53.426;10.300;2022-12-07T03:52:11;8.43;;;3.97;;
62790;SDS011;48830;53.426;10.300;2022-12-07T03:57:15;8.67;;;3.50;;
62790;SDS011;48830;53.426;10.300;2022-12-07T03:59:42;10.00;;;3.43;;
62790;SDS011;48830;53.426;10.300;2022-12-07T04:02:08;7.70;;;4.00;;
62790;SDS011;48830;53.426;10.300;2022-12-07T04:04:37;8.20;;;3.70;;
62790;SDS011;48830;53.426;10.300;2022-12-07T04:07:03;9.20;;;3.50;;
62790;SDS011;48830;53.426;10.300;2022-12-07T04:09:28;8.03;;;3.47;;
62790;SDS011;48830;53.426;10.300;2022-12-07T04:11:54;9.00;;;3.80;;
62790;SDS011;48830;53.426;10.300;2022-12-07T04:14:19;7.73;;;3.77;;
62790;SDS011;48830;53.426;10.300;2022-12-07T04:19:12;7.90;;;3.70;;
62790;SDS011;48830;53.426;10.300;2022-12-07T04:21:37;8.97;;;3.60;;
62790;SDS011;48830;53.426;10.300;2022-12-07T04:24:04;9.23;;;3.30;;
62790;SDS011;48830;53.426;10.300;2022-12-07T04:26:29;7.43;;;3.67;;
62790;SDS011;48830;53.426;10.300;2022-12-07T04:28:55;7.97;;;3.63;;
62790;SDS011;48830;53.426;10.300;2022-12-07T04:31:20;10.23;;;3.73;;
62790;SDS011;48830;53.426;10.300;2022-12-07T04:33:46;9.83;;;3.80;;
62790;SDS011;48830;53.426;10.300;2022-12-07T04:36:11;8.87;;;3.40;;
62790;SDS011;48830;53.426;10.300;2022-12-07T04:38:37;7.63;;;3.43;;
62790;SDS011;48830;53.426;10.300;2022-12-07T04:41:06;9.20;;;3.57;;
62790;SDS011;48830;53.426;10.300;2022-12-07T04:43:32;6.30;;;3.33;;
62790;SDS011;48830;53.426;10.300;2022-12-07T04:45:58;9.23;;;3.70;;
62790;SDS011;48830;53.426;10.300;2022-12-07T04:48:23;7.37;;;3.20;;
62790;SDS011;48830;53.426;10.300;2022-12-07T04:50:49;10.07;;;3.90;;
62790;SDS011;48830;53.426;10.300;2022-12-07T04:53:14;8.57;;;3.50;;
62790;SDS011;48830;53.426;10.300;2022-12-07T04:55:40;5.87;;;2.80;;
62790;SDS011;48830;53.426;10.300;2022-12-07T04:58:06;8.90;;;3.40;;
62790;SDS011;48830;53.426;10.300;2022-12-07T05:00:31;9.67;;;3.63;;
62790;SDS011;48830;53.426;10.300;2022-12-07T05:02:57;8.27;;;3.30;;
62790;SDS011;48830;53.426;10.300;2022-12-07T05:05:22;8.17;;;3.20;;
62790;SDS011;48830;53.426;10.300;2022-12-07T05:07:47;10.03;;;3.40;;
62790;SDS011;48830;53.426;10.300;2022-12-07T05:10:13;5.97;;;2.97;;
62790;SDS011;48830;53.426;10.300;2022-12-07T05:12:38;6.73;;;2.73;;
62790;SDS011;48830;53.426;10.300;2022-12-07T05:15:04;7.40;;;2.80;;
62790;SDS011;48830;53.426;10.300;2022-12-07T05:17:30;6.83;;;3.17;;
62790;SDS011;48830;53.426;10.300;2022-12-07T05:19:55;8.63;;;3.03;;
62790;SDS011;48830;53.426;10.300;2022-12-07T05:22:20;7.07;;;3.17;;
62790;SDS011;48830;53.426;10.300;2022-12-07T05:24:46;5.17;;;2.67;;
62790;SDS011;48830;53.426;10.300;2022-12-07T05:27:12;7.50;;;3.10;;
62790;SDS011;48830;53.426;10.300;2022-12-07T05:29:37;6.17;;;2.80;;
62790;SDS011;48830;53.426;10.300;2022-12-07T05:32:03;7.27;;;2.80;;
62790;SDS011;48830;53.426;10.300;2022-12-07T05:34:28;8.03;;;2.87;;
62790;SDS011;48830;53.426;10.300;2022-12-07T05:36:54;10.73;;;3.10;;
62790;SDS011;48830;53.426;10.300;2022-12-07T05:39:19;8.27;;;2.93;;
62790;SDS011;48830;53.426;10.300;2022-12-07T05:41:45;6.13;;;3.00;;
62790;SDS011;48830;53.426;10.300;2022-12-07T05:44:28;7.77;;;2.60;;
62790;SDS011;48830;53.426;10.300;2022-12-07T05:46:54;6.30;;;2.77;;
62790;SDS011;48830;53.426;10.300;2022-12-07T05:49:19;6.63;;;2.93;;
62790;SDS011;48830;53.426;10.300;2022-12-07T05:51:45;7.50;;;2.83;;
62790;SDS011;48830;53.426;10.300;2022-12-07T05:54:10;6.73;;;2.83;;
62790;SDS011;48830;53.426;10.300;2022-12-07T05:56:36;7.17;;;3.17;;
62790;SDS011;48830;53.426;10.300;2022-12-07T05:59:01;6.17;;;3.40;;
62790;SDS011;48830;53.426;10.300;2022-12-07T06:01:45;7.00;;;3.03;;
62790;SDS011;48830;53.426;10.300;2022-12-07T06:04:11;6.70;;;3.03;;
62790;SDS011;48830;53.426;10.300;2022-12-07T06:06:36;7.43;;;2.87;;
62790;SDS011;48830;53.426;10.300;2022-12-07T06:09:02;7.40;;;3.13;;
62790;SDS011;48830;53.426;10.300;2022-12-07T06:11:29;5.43;;;2.93;;
62790;SDS011;48830;53.426;10.300;2022-12-07T06:14:13;8.30;;;2.83;;
62790;SDS011;48830;53.426;10.300;2022-12-07T06:16:39;7.63;;;2.87;;
62790;SDS011;48830;53.426;10.300;2022-12-07T06:19:04;9.23;;;3.37;;
62790;SDS011;48830;53.426;10.300;2022-12-07T06:21:29;6.90;;;3.00;;
62790;SDS011;48830;53.426;10.300;2022-12-07T06:23:55;9.77;;;3.60;;
62790;SDS011;48830;53.426;10.300;2022-12-07T06:26:21;6.07;;;3.13;;
62790;SDS011;48830;53.426;10.300;2022-12-07T06:28:46;5.77;;;3.00;;
62790;SDS011;48830;53.426;10.300;2022-12-07T06:31:12;9.40;;;3.40;;
62790;SDS011;48830;53.426;10.300;2022-12-07T06:33:37;8.37;;;3.33;;
62790;SDS011;48830;53.426;10.300;2022-12-07T06:36:03;6.77;;;3.00;;
62790;SDS011;48830;53.426;10.300;2022-12-07T06:38:28;5.90;;;2.97;;
62790;SDS011;48830;53.426;10.300;2022-12-07T06:40:54;6.10;;;2.70;;
62790;SDS011;48830;53.426;10.300;2022-12-07T06:43:19;6.13;;;3.00;;
62790;SDS011;48830;53.426;10.300;2022-12-07T06:45:45;5.67;;;2.87;;
62790;SDS011;48830;53.426;10.300;2022-12-07T06:48:10;6.40;;;2.83;;
62790;SDS011;48830;53.426;10.300;2022-12-07T06:50:36;6.73;;;2.90;;
62790;SDS011;48830;53.426;10.300;2022-12-07T06:53:01;5.60;;;2.60;;
62790;SDS011;48830;53.426;10.300;2022-12-07T06:55:26;4.67;;;2.40;;
62790;SDS011;48830;53.426;10.300;2022-12-07T06:57:52;5.93;;;2.40;;
62790;SDS011;48830;53.426;10.300;2022-12-07T07:00:17;6.20;;;2.27;;
62790;SDS011;48830;53.426;10.300;2022-12-07T07:02:43;5.07;;;2.70;;
62790;SDS011;48830;53.426;10.300;2022-12-07T07:05:08;8.97;;;3.17;;
62790;SDS011;48830;53.426;10.300;2022-12-07T07:07:34;5.53;;;2.57;;
62790;SDS011;48830;53.426;10.300;2022-12-07T07:09:59;5.73;;;2.53;;
62790;SDS011;48830;53.426;10.300;2022-12-07T07:12:25;6.40;;;2.57;;
62790;SDS011;48830;53.426;10.300;2022-12-07T07:14:50;7.77;;;3.03;;
62790;SDS011;48830;53.426;10.300;2022-12-07T07:17:16;7.47;;;3.07;;
62790;SDS011;48830;53.426;10.300;2022-12-07T07:19:41;7.33;;;2.97;;
62790;SDS011;48830;53.426;10.300;2022-12-07T07:22:06;6.53;;;2.67;;
62790;SDS011;48830;53.426;10.300;2022-12-07T07:24:32;5.67;;;2.80;;
62790;SDS011;48830;53.426;10.300;2022-12-07T07:26:57;8.60;;;2.80;;
62790;SDS011;48830;53.426;10.300;2022-12-07T07:29:23;11.13;;;3.30;;
62790;SDS011;48830;53.426;10.300;2022-12-07T07:31:48;6.97;;;3.30;;
62790;SDS011;48830;53.426;10.300;2022-12-07T07:34:13;8.23;;;3.47;;
62790;SDS011;48830;53.426;10.300;2022-12-07T07:36:39;9.37;;;3.53;;
62790;SDS011;48830;53.426;10.300;2022-12-07T07:39:04;8.13;;;3.17;;
62790;SDS011;48830;53.426;10.300;2022-12-07T07:41:30;10.77;;;3.63;;
62790;SDS011;48830;53.426;10.300;2022-12-07T07:43:56;8.17;;;2.60;;
62790;SDS011;48830;53.426;10.300;2022-12-07T07:46:22;10.17;;;3.07;;
62790;SDS011;48830;53.426;10.300;2022-12-07T07:48:47;7.43;;;2.87;;
62790;SDS011;48830;53.426;10.300;2022-12-07T07:51:12;7.67;;;2.93;;
62790;SDS011;48830;53.426;10.300;2022-12-07T07:53:38;7.63;;;3.13;;
62790;SDS011;48830;53.426;10.300;2022-12-07T07:56:03;9.13;;;2.50;;
62790;SDS011;48830;53.426;10.300;2022-12-07T07:58:29;7.70;;;2.50;;
62790;SDS011;48830;53.426;10.300;2022-12-07T08:00:54;8.47;;;2.10;;
62790;SDS011;48830;53.426;10.300;2022-12-07T08:03:20;5.80;;;2.50;;
62790;SDS011;48830;53.426;10.300;2022-12-07T08:05:45;4.83;;;2.10;;
62790;SDS011;48830;53.426;10.300;2022-12-07T08:08:11;7.17;;;2.83;;
62790;SDS011;48830;53.426;10.300;2022-12-07T08:10:36;7.80;;;2.43;;
62790;SDS011;48830;53.426;10.300;2022-12-07T08:13:02;4.77;;;2.20;;
62790;SDS011;48830;53.426;10.300;2022-12-07T08:15:38;8.63;;;3.17;;
62790;SDS011;48830;53.426;10.300;2022-12-07T08:18:05;8.40;;;2.60;;
62790;SDS011;48830;53.426;10.300;2022-12-07T08:20:32;5.30;;;2.30;;
62790;SDS011;48830;53.426;10.300;2022-12-07T08:22:59;5.30;;;2.10;;
62790;SDS011;48830;53.426;10.300;2022-12-07T08:25:24;6.00;;;2.50;;
62790;SDS011;48830;53.426;10.300;2022-12-07T08:27:50;6.03;;;2.50;;
62790;SDS011;48830;53.426;10.300;2022-12-07T08:30:16;5.33;;;2.40;;
62790;SDS011;48830;53.426;10.300;2022-12-07T08:32:43;5.80;;;2.33;;
62790;SDS011;48830;53.426;10.300;2022-12-07T08:35:09;7.10;;;2.83;;
62790;SDS011;48830;53.426;10.300;2022-12-07T08:37:35;7.63;;;2.77;;
62790;SDS011;48830;53.426;10.300;2022-12-07T08:40:01;6.77;;;2.40;;
62790;SDS011;48830;53.426;10.300;2022-12-07T08:42:26;9.13;;;2.80;;
62790;SDS011;48830;53.426;10.300;2022-12-07T08:44:55;5.40;;;2.33;;
62790;SDS011;48830;53.426;10.300;2022-12-07T08:47:22;5.27;;;2.23;;
62790;SDS011;48830;53.426;10.300;2022-12-07T08:49:48;4.60;;;2.17;;
62790;SDS011;48830;53.426;10.300;2022-12-07T08:52:16;7.43;;;2.47;;
62790;SDS011;48830;53.426;10.300;2022-12-07T08:54:43;6.97;;;2.33;;
62790;SDS011;48830;53.426;10.300;2022-12-07T08:57:09;7.73;;;2.40;;
62790;SDS011;48830;53.426;10.300;2022-12-07T08:59:36;5.33;;;2.47;;
62790;SDS011;48830;53.426;10.300;2022-12-07T09:02:02;5.23;;;2.33;;
62790;SDS011;48830;53.426;10.300;2022-12-07T09:04:28;5.33;;;2.40;;
62790;SDS011;48830;53.426;10.300;2022-12-07T09:06:54;5.73;;;2.20;;
62790;SDS011;48830;53.426;10.300;2022-12-07T09:09:20;5.57;;;2.20;;
62790;SDS011;48830;53.426;10.300;2022-12-07T09:11:46;6.00;;;2.40;;
62790;SDS011;48830;53.426;10.300;2022-12-07T09:14:11;4.87;;;2.10;;
62790;SDS011;48830;53.426;10.300;2022-12-07T09:16:37;6.37;;;2.33;;
62790;SDS011;48830;53.426;10.300;2022-12-07T09:19:03;7.23;;;2.50;;
62790;SDS011;48830;53.426;10.300;2022-12-07T09:21:29;4.77;;;2.33;;
62790;SDS011;48830;53.426;10.300;2022-12-07T09:23:55;7.47;;;2.30;;
62790;SDS011;48830;53.426;10.300;2022-12-07T09:26:20;4.50;;;2.00;;
62790;SDS011;48830;53.426;10.300;2022-12-07T09:28:46;6.03;;;2.20;;
62790;SDS011;48830;53.426;10.300;2022-12-07T09:31:11;6.40;;;2.23;;
62790;SDS011;48830;53.426;10.300;2022-12-07T09:33:37;6.97;;;2.27;;
62790;SDS011;48830;53.426;10.300;2022-12-07T09:36:03;6.33;;;2.53;;
62790;SDS011;48830;53.426;10.300;2022-12-07T09:38:29;9.00;;;2.43;;
62790;SDS011;48830;53.426;10.300;2022-12-07T09:40:56;5.77;;;2.17;;
62790;SDS011;48830;53.426;10.300;2022-12-07T09:43:22;6.33;;;2.10;;
62790;SDS011;48830;53.426;10.300;2022-12-07T09:45:50;6.00;;;2.23;;
62790;SDS011;48830;53.426;10.300;2022-12-07T09:48:20;7.33;;;2.07;;
62790;SDS011;48830;53.426;10.300;2022-12-07T09:50:48;7.20;;;2.23;;
62790;SDS011;48830;53.426;10.300;2022-12-07T09:53:17;7.77;;;2.03;;
62790;SDS011;48830;53.426;10.300;2022-12-07T09:55:49;4.93;;;2.43;;
62790;SDS011;48830;53.426;10.300;2022-12-07T09:58:19;5.87;;;2.00;;
62790;SDS011;48830;53.426;10.300;2022-12-07T10:00:47;6.83;;;2.20;;
62790;SDS011;48830;53.426;10.300;2022-12-07T10:03:13;6.90;;;2.10;;
62790;SDS011;48830;53.426;10.300;2022-12-07T10:05:40;5.40;;;2.17;;
62790;SDS011;48830;53.426;10.300;2022-12-07T10:08:13;7.70;;;1.80;;
62790;SDS011;48830;53.426;10.300;2022-12-07T10:10:40;9.27;;;2.20;;
62790;SDS011;48830;53.426;10.300;2022-12-07T10:18:21;5.40;;;1.60;;
62790;SDS011;48830;53.426;10.300;2022-12-07T10:20:50;6.60;;;1.97;;
62790;SDS011;48830;53.426;10.300;2022-12-07T10:23:26;9.23;;;1.80;;
62790;SDS011;48830;53.426;10.300;2022-12-07T10:25:51;6.83;;;1.70;;
62790;SDS011;48830;53.426;10.300;2022-12-07T10:28:20;4.60;;;1.70;;
62790;SDS011;48830;53.426;10.300;2022-12-07T10:30:54;4.70;;;1.87;;
62790;SDS011;48830;53.426;10.300;2022-12-07T10:33:32;6.80;;;2.07;;
62790;SDS011;48830;53.426;10.300;2022-12-07T10:38:53;5.23;;;1.80;;
62790;SDS011;48830;53.426;10.300;2022-12-07T10:41:23;4.53;;;1.83;;
62790;SDS011;48830;53.426;10.300;2022-12-07T10:43:50;5.93;;;1.70;;
62790;SDS011;48830;53.426;10.300;2022-12-07T10:46:35;6.07;;;1.93;;
62790;SDS011;48830;53.426;10.300;2022-12-07T11:00:31;9.13;;;2.37;;
62790;SDS011;48830;53.426;10.300;2022-12-07T11:13:54;3.67;;;1.47;;
62790;SDS011;48830;53.426;10.300;2022-12-07T11:25:15;2.73;;;1.10;;
62790;SDS011;48830;53.426;10.300;2022-12-07T11:30:57;4.60;;;1.20;;
62790;SDS011;48830;53.426;10.300;2022-12-07T11:36:31;4.50;;;1.20;;
62790;SDS011;48830;53.426;10.300;2022-12-07T11:39:26;3.40;;;1.23;;
62790;SDS011;48830;53.426;10.300;2022-12-07T11:41:56;4.07;;;1.63;;
62790;SDS011;48830;53.426;10.300;2022-12-07T11:46:59;4.73;;;1.37;;
62790;SDS011;48830;53.426;10.300;2022-12-07T11:52:17;4.80;;;1.27;;
62790;SDS011;48830;53.426;10.300;2022-12-07T11:54:47;7.37;;;1.77;;
62790;SDS011;48830;53.426;10.300;2022-12-07T11:57:50;3.97;;;1.60;;
62790;SDS011;48830;53.426;10.300;2022-12-07T12:00:15;4.93;;;1.47;;
62790;SDS011;48830;53.426;10.300;2022-12-07T12:02:58;3.37;;;1.23;;
62790;SDS011;48830;53.426;10.300;2022-12-07T12:05:45;6.70;;;1.20;;
62790;SDS011;48830;53.426;10.300;2022-12-07T12:21:30;4.00;;;1.20;;
62790;SDS011;48830;53.426;10.300;2022-12-07T12:27:02;5.67;;;1.63;;
62790;SDS011;48830;53.426;10.300;2022-12-07T12:29:36;5.47;;;1.70;;
62790;SDS011;48830;53.426;10.300;2022-12-07T12:32:13;4.43;;;1.73;;
62790;SDS011;48830;53.426;10.300;2022-12-07T12:42:48;6.27;;;1.70;;
62790;SDS011;48830;53.426;10.300;2022-12-07T12:45:27;4.83;;;1.30;;
62790;SDS011;48830;53.426;10.300;2022-12-07T12:48:00;6.03;;;1.33;;
62790;SDS011;48830;53.426;10.300;2022-12-07T13:00:42;5.97;;;1.47;;
62790;SDS011;48830;53.426;10.300;2022-12-07T13:03:20;6.53;;;1.80;;
62790;SDS011;48830;53.426;10.300;2022-12-07T13:06:06;6.37;;;1.80;;
62790;SDS011;48830;53.426;10.300;2022-12-07T13:08:42;4.73;;;1.50;;
62790;SDS011;48830;53.426;10.300;2022-12-07T13:19:58;6.67;;;1.53;;
62790;SDS011;48830;53.426;10.300;2022-12-07T13:25:18;5.80;;;1.50;;
62790;SDS011;48830;53.426;10.300;2022-12-07T13:27:43;8.23;;;1.63;;
62790;SDS011;48830;53.426;10.300;2022-12-07T13:30:20;4.67;;;1.90;;
62790;SDS011;48830;53.426;10.300;2022-12-07T13:32:57;8.80;;;1.57;;
62790;SDS011;48830;53.426;10.300;2022-12-07T13:35:27;5.73;;;1.80;;
62790;SDS011;48830;53.426;10.300;2022-12-07T13:38:03;3.13;;;1.37;;
62790;SDS011;48830;53.426;10.300;2022-12-07T13:40:31;9.17;;;1.73;;
62790;SDS011;48830;53.426;10.300;2022-12-07T13:42:57;6.50;;;1.70;;
62790;SDS011;48830;53.426;10.300;2022-12-07T13:45:25;7.03;;;1.70;;
62790;SDS011;48830;53.426;10.300;2022-12-07T13:48:32;5.20;;;1.53;;
62790;SDS011;48830;53.426;10.300;2022-12-07T13:51:02;5.33;;;1.73;;
62790;SDS011;48830;53.426;10.300;2022-12-07T13:53:28;8.27;;;1.70;;
62790;SDS011;48830;53.426;10.300;2022-12-07T13:55:57;7.60;;;1.87;;
62790;SDS011;48830;53.426;10.300;2022-12-07T13:58:25;6.80;;;1.80;;
62790;SDS011;48830;53.426;10.300;2022-12-07T14:00:55;5.20;;;1.70;;
62790;SDS011;48830;53.426;10.300;2022-12-07T14:03:34;3.83;;;1.70;;
62790;SDS011;48830;53.426;10.300;2022-12-07T14:08:39;7.17;;;1.80;;
62790;SDS011;48830;53.426;10.300;2022-12-07T14:11:05;5.00;;;1.57;;
62790;SDS011;48830;53.426;10.300;2022-12-07T14:19:01;8.33;;;1.73;;
62790;SDS011;48830;53.426;10.300;2022-12-07T14:21:30;4.90;;;1.57;;
62790;SDS011;48830;53.426;10.300;2022-12-07T14:26:43;6.50;;;1.70;;
62790;SDS011;48830;53.426;10.300;2022-12-07T14:29:19;4.03;;;1.50;;
62790;SDS011;48830;53.426;10.300;2022-12-07T14:31:52;7.03;;;1.63;;
62790;SDS011;48830;53.426;10.300;2022-12-07T14:34:21;10.60;;;1.63;;
62790;SDS011;48830;53.426;10.300;2022-12-07T14:36:47;5.47;;;1.27;;
62790;SDS011;48830;53.426;10.300;2022-12-07T14:39:13;4.57;;;1.30;;
62790;SDS011;48830;53.426;10.300;2022-12-07T14:41:38;6.97;;;1.57;;
62790;SDS011;48830;53.426;10.300;2022-12-07T14:44:16;3.43;;;1.30;;
62790;SDS011;48830;53.426;10.300;2022-12-07T14:46:43;4.50;;;1.30;;
62790;SDS011;48830;53.426;10.300;2022-12-07T14:49:08;6.33;;;1.50;;
62790;SDS011;48830;53.426;10.300;2022-12-07T14:51:33;2.97;;;1.17;;
62790;SDS011;48830;53.426;10.300;2022-12-07T14:54:02;6.73;;;1.83;;
62790;SDS011;48830;53.426;10.300;2022-12-07T14:56:30;5.40;;;1.43;;
62790;SDS011;48830;53.426;10.300;2022-12-07T14:58:56;6.87;;;1.70;;
62790;SDS011;48830;53.426;10.300;2022-12-07T15:01:21;5.27;;;1.20;;
62790;SDS011;48830;53.426;10.300;2022-12-07T15:03:46;7.50;;;1.43;;
62790;SDS011;48830;53.426;10.300;2022-12-07T15:06:16;6.93;;;1.60;;
62790;SDS011;48830;53.426;10.300;2022-12-07T15:08:42;5.00;;;1.60;;
62790;SDS011;48830;53.426;10.300;2022-12-07T15:11:12;5.50;;;1.10;;
62790;SDS011;48830;53.426;10.300;2022-12-07T15:13:38;3.70;;;1.17;;
62790;SDS011;48830;53.426;10.300;2022-12-07T15:16:22;7.07;;;1.60;;
62790;SDS011;48830;53.426;10.300;2022-12-07T15:18:48;5.03;;;1.30;;
62790;SDS011;48830;53.426;10.300;2022-12-07T15:21:16;5.70;;;1.40;;
62790;SDS011;48830;53.426;10.300;2022-12-07T15:23:41;5.23;;;1.20;;
62790;SDS011;48830;53.426;10.300;2022-12-07T15:26:07;6.10;;;1.50;;
62790;SDS011;48830;53.426;10.300;2022-12-07T15:28:34;5.53;;;1.03;;
62790;SDS011;48830;53.426;10.300;2022-12-07T15:31:00;4.17;;;1.20;;
62790;SDS011;48830;53.426;10.300;2022-12-07T15:33:25;5.73;;;1.00;;
62790;SDS011;48830;53.426;10.300;2022-12-07T15:35:51;5.07;;;1.63;;
62790;SDS011;48830;53.426;10.300;2022-12-07T15:38:16;3.47;;;1.57;;
62790;SDS011;48830;53.426;10.300;2022-12-07T15:40:42;6.50;;;1.63;;
62790;SDS011;48830;53.426;10.300;2022-12-07T15:43:08;5.30;;;1.73;;
62790;SDS011;48830;53.426;10.300;2022-12-07T15:45:54;8.13;;;3.13;;
62790;SDS011;48830;53.426;10.300;2022-12-07T15:48:20;6.23;;;2.80;;
62790;SDS011;48830;53.426;10.300;2022-12-07T15:50:45;7.73;;;2.97;;
62790;SDS011;48830;53.426;10.300;2022-12-07T15:53:10;7.77;;;2.73;;
62790;SDS011;48830;53.426;10.300;2022-12-07T15:55:38;7.17;;;2.30;;
62790;SDS011;48830;53.426;10.300;2022-12-07T15:58:04;6.37;;;1.90;;
62790;SDS011;48830;53.426;10.300;2022-12-07T16:00:29;6.37;;;2.17;;
62790;SDS011;48830;53.426;10.300;2022-12-07T16:02:54;6.27;;;1.97;;
62790;SDS011;48830;53.426;10.300;2022-12-07T16:05:20;8.07;;;2.10;;
62790;SDS011;48830;53.426;10.300;2022-12-07T16:07:45;8.60;;;2.60;;
62790;SDS011;48830;53.426;10.300;2022-12-07T16:10:12;7.23;;;2.47;;
62790;SDS011;48830;53.426;10.300;2022-12-07T16:12:37;6.97;;;2.33;;
62790;SDS011;48830;53.426;10.300;2022-12-07T16:15:03;10.53;;;2.67;;
62790;SDS011;48830;53.426;10.300;2022-12-07T16:17:29;8.23;;;2.30;;
62790;SDS011;48830;53.426;10.300;2022-12-07T16:19:55;5.70;;;2.40;;
62790;SDS011;48830;53.426;10.300;2022-12-07T16:22:20;6.30;;;2.67;;
62790;SDS011;48830;53.426;10.300;2022-12-07T16:24:45;6.90;;;2.70;;
62790;SDS011;48830;53.426;10.300;2022-12-07T16:27:11;8.90;;;2.80;;
62790;SDS011;48830;53.426;10.300;2022-12-07T16:29:36;6.87;;;2.67;;
62790;SDS011;48830;53.426;10.300;2022-12-07T16:32:02;6.83;;;2.83;;
62790;SDS011;48830;53.426;10.300;2022-12-07T16:34:27;6.27;;;2.90;;
62790;SDS011;48830;53.426;10.300;2022-12-07T16:36:53;7.20;;;2.97;;
62790;SDS011;48830;53.426;10.300;2022-12-07T16:39:18;6.87;;;3.17;;
62790;SDS011;48830;53.426;10.300;2022-12-07T16:41:43;7.80;;;3.37;;
62790;SDS011;48830;53.426;10.300;2022-12-07T16:44:12;7.30;;;3.10;;
62790;SDS011;48830;53.426;10.300;2022-12-07T16:46:38;5.73;;;3.23;;
62790;SDS011;48830;53.426;10.300;2022-12-07T16:49:04;5.93;;;3.20;;
62790;SDS011;48830;53.426;10.300;2022-12-07T16:51:30;7.20;;;3.20;;
62790;SDS011;48830;53.426;10.300;2022-12-07T16:53:56;6.57;;;3.00;;
62790;SDS011;48830;53.426;10.300;2022-12-07T16:56:21;8.23;;;2.93;;
62790;SDS011;48830;53.426;10.300;2022-12-07T16:58:47;8.30;;;3.17;;